Aeroporto :
LOGIN :

Iscrizione | Disclaimer

   EN    FR    IT 

 










Sommario :    VFR   VFR Marginale   IFR   IFR Intensivo   IFR Molto Intensivo
Visibilità : 
Base nubi : 
>= 8 km
>= 3000ft
5 / 8 km
1000 / 3000 ft
1500m / 5 km
500 / 1000 ft
800 / 1500m
200 / 500 ft
< 800m
< 200 ft
Simboli :   Temporali  Nebbia  Neve Forte  Precipitazioni Forti  Vento > 20 kt
SIGMETs :   Varie  Temporali  Ghiacco  Turbolenza  Onda orograficha  Ceneri Vulcaniche






- Altitudine del aeroporto : 171 ft
- Codice IATA : EGC


LFBE - Bergerac

ULTIMO METAR :
  • 222230Z AUTO 22003KT 190V250 9999 // ///TCU 11/09 Q0987

METARs OBSOLETI :
  • 222200Z AUTO 20008KT 150V240 9999 // FEW037/// BKN072/// OVC088/// ///TCU 13/09 Q0987
  • 222130Z AUTO 14009KT 120V190 9999 // ///TCU 13/08 Q0987
  • 222100Z AUTO 14012KT 9999 // FEW037 BKN092 BKN110 13/08 Q0986
  • 222030Z AUTO 13012KT 090V150 9999 // NSC 13/08 Q0986
  • 222000Z AUTO 14011KT 9999 // NSC 13/08 Q0987

TAF TAF LFBE
Valido dal 22 a 18 ore il 23 a 18 ore UTC


221700Z 2218/2318 14010KT CAVOK
TEMPO 2218/2302 14015G25KT -RA OVC060
PROB30
TEMPO 2221/2302 4000 SHRA SCT040CB BKN060TCU
BECMG 2302/2304 20010KT
TEMPO 2308/2311 BKN008
BECMG 2312/2314 26015KT BKN020
TEMPO 2312/2318 26020G30KT 2000 SHRA BKN015CB



MetMap, La meteo Aeronautica in un colpo d'occhio ! - Copyright ORBIFLY Dicembre 2007 - Disclaimer

ORBIFLY MET'MAP TEAM :

Programmazione e sviluppo : Alexandra Zaïnal
Concezione e sviluppo : Baudouin d'Aumeries
Co-Programmazione e sviluppo : Marc-Olivier Méhu
Supporto tecnico e logistico : Manuel Goepfert
Aiuto per la traduzione : Arnaldo La Scala

Contatto : metmap@orbifly.com




FONTI E CREDITI :

   NOAA